sensor_id;sensor_type;location;lat;lon;timestamp;P1;durP1;ratioP1;P2;durP2;ratioP2
485;SDS011;229;48.734;9.340;2023-12-04T00:01:45;23.58;;;10.95;;
485;SDS011;229;48.734;9.340;2023-12-04T00:04:12;21.67;;;11.13;;
485;SDS011;229;48.734;9.340;2023-12-04T00:06:41;23.08;;;11.10;;
485;SDS011;229;48.734;9.340;2023-12-04T00:09:09;23.98;;;11.55;;
485;SDS011;229;48.734;9.340;2023-12-04T00:11:36;26.35;;;12.52;;
485;SDS011;229;48.734;9.340;2023-12-04T00:14:03;25.20;;;12.73;;
485;SDS011;229;48.734;9.340;2023-12-04T00:16:33;23.20;;;12.82;;
485;SDS011;229;48.734;9.340;2023-12-04T00:19:00;26.02;;;11.68;;
485;SDS011;229;48.734;9.340;2023-12-04T00:21:27;24.95;;;11.88;;
485;SDS011;229;48.734;9.340;2023-12-04T00:23:56;25.13;;;13.10;;
485;SDS011;229;48.734;9.340;2023-12-04T00:26:23;22.35;;;11.88;;
485;SDS011;229;48.734;9.340;2023-12-04T00:28:50;22.50;;;11.27;;
485;SDS011;229;48.734;9.340;2023-12-04T00:31:17;22.08;;;11.75;;
485;SDS011;229;48.734;9.340;2023-12-04T00:33:45;22.20;;;11.10;;
485;SDS011;229;48.734;9.340;2023-12-04T00:36:13;23.23;;;11.35;;
485;SDS011;229;48.734;9.340;2023-12-04T00:38:40;20.50;;;10.43;;
485;SDS011;229;48.734;9.340;2023-12-04T00:41:08;21.75;;;10.85;;
485;SDS011;229;48.734;9.340;2023-12-04T00:46:04;23.75;;;11.40;;
485;SDS011;229;48.734;9.340;2023-12-04T00:48:31;21.33;;;10.15;;
485;SDS011;229;48.734;9.340;2023-12-04T00:50:58;21.17;;;10.40;;
485;SDS011;229;48.734;9.340;2023-12-04T00:53:25;28.75;;;11.23;;
485;SDS011;229;48.734;9.340;2023-12-04T00:55:52;25.67;;;10.75;;
485;SDS011;229;48.734;9.340;2023-12-04T00:58:21;20.88;;;10.15;;
485;SDS011;229;48.734;9.340;2023-12-04T01:00:48;20.95;;;10.68;;
485;SDS011;229;48.734;9.340;2023-12-04T01:03:17;20.88;;;10.65;;
485;SDS011;229;48.734;9.340;2023-12-04T01:05:44;23.92;;;11.88;;
485;SDS011;229;48.734;9.340;2023-12-04T01:08:11;27.33;;;12.13;;
485;SDS011;229;48.734;9.340;2023-12-04T01:10:38;23.63;;;11.85;;
485;SDS011;229;48.734;9.340;2023-12-04T01:13:05;23.52;;;12.43;;
485;SDS011;229;48.734;9.340;2023-12-04T01:15:34;29.63;;;12.40;;
485;SDS011;229;48.734;9.340;2023-12-04T01:18:01;24.73;;;11.52;;
485;SDS011;229;48.734;9.340;2023-12-04T01:20:28;24.67;;;12.68;;
485;SDS011;229;48.734;9.340;2023-12-04T01:22:58;24.02;;;10.88;;
485;SDS011;229;48.734;9.340;2023-12-04T01:25:25;28.25;;;13.05;;
485;SDS011;229;48.734;9.340;2023-12-04T01:27:52;27.85;;;12.18;;
485;SDS011;229;48.734;9.340;2023-12-04T01:30:19;26.60;;;13.30;;
485;SDS011;229;48.734;9.340;2023-12-04T01:32:48;28.23;;;12.93;;
485;SDS011;229;48.734;9.340;2023-12-04T01:35:15;31.98;;;13.32;;
485;SDS011;229;48.734;9.340;2023-12-04T01:37:43;22.17;;;11.93;;
485;SDS011;229;48.734;9.340;2023-12-04T01:40:11;19.33;;;9.85;;
485;SDS011;229;48.734;9.340;2023-12-04T01:42:38;20.48;;;12.02;;
485;SDS011;229;48.734;9.340;2023-12-04T01:45:06;26.75;;;11.85;;
485;SDS011;229;48.734;9.340;2023-12-04T01:47:34;27.33;;;12.70;;
485;SDS011;229;48.734;9.340;2023-12-04T01:50:03;26.98;;;11.60;;
485;SDS011;229;48.734;9.340;2023-12-04T01:52:30;24.80;;;11.52;;
485;SDS011;229;48.734;9.340;2023-12-04T01:54:57;23.92;;;10.93;;
485;SDS011;229;48.734;9.340;2023-12-04T01:57:25;19.98;;;10.20;;
485;SDS011;229;48.734;9.340;2023-12-04T01:59:52;24.52;;;10.73;;
485;SDS011;229;48.734;9.340;2023-12-04T02:02:19;23.27;;;11.52;;
485;SDS011;229;48.734;9.340;2023-12-04T02:04:46;27.40;;;10.90;;
485;SDS011;229;48.734;9.340;2023-12-04T02:07:15;24.60;;;10.55;;
485;SDS011;229;48.734;9.340;2023-12-04T02:09:42;22.35;;;10.82;;
485;SDS011;229;48.734;9.340;2023-12-04T02:12:09;22.92;;;9.80;;
485;SDS011;229;48.734;9.340;2023-12-04T02:14:37;23.33;;;10.65;;
485;SDS011;229;48.734;9.340;2023-12-04T02:17:04;23.00;;;11.00;;
485;SDS011;229;48.734;9.340;2023-12-04T02:19:32;23.20;;;10.73;;
485;SDS011;229;48.734;9.340;2023-12-04T02:21:59;26.55;;;11.10;;
485;SDS011;229;48.734;9.340;2023-12-04T02:24:28;26.23;;;12.30;;
485;SDS011;229;48.734;9.340;2023-12-04T02:27:01;27.42;;;12.00;;
485;SDS011;229;48.734;9.340;2023-12-04T02:29:30;25.50;;;11.45;;
485;SDS011;229;48.734;9.340;2023-12-04T02:31:58;24.20;;;12.00;;
485;SDS011;229;48.734;9.340;2023-12-04T02:34:26;23.83;;;11.98;;
485;SDS011;229;48.734;9.340;2023-12-04T02:36:54;25.40;;;12.50;;
485;SDS011;229;48.734;9.340;2023-12-04T02:39:22;22.20;;;11.63;;
485;SDS011;229;48.734;9.340;2023-12-04T02:41:51;30.88;;;14.35;;
485;SDS011;229;48.734;9.340;2023-12-04T02:44:18;27.95;;;12.18;;
485;SDS011;229;48.734;9.340;2023-12-04T02:46:45;28.63;;;13.82;;
485;SDS011;229;48.734;9.340;2023-12-04T02:49:12;42.03;;;17.80;;
485;SDS011;229;48.734;9.340;2023-12-04T02:51:40;40.03;;;18.90;;
485;SDS011;229;48.734;9.340;2023-12-04T02:54:07;32.42;;;15.60;;
485;SDS011;229;48.734;9.340;2023-12-04T02:56:34;33.97;;;15.15;;
485;SDS011;229;48.734;9.340;2023-12-04T02:59:03;33.90;;;14.77;;
485;SDS011;229;48.734;9.340;2023-12-04T03:01:30;28.85;;;14.43;;
485;SDS011;229;48.734;9.340;2023-12-04T03:03:57;30.83;;;15.00;;
485;SDS011;229;48.734;9.340;2023-12-04T03:06:24;36.58;;;13.70;;
485;SDS011;229;48.734;9.340;2023-12-04T03:08:51;27.25;;;13.13;;
485;SDS011;229;48.734;9.340;2023-12-04T03:11:19;30.10;;;12.77;;
485;SDS011;229;48.734;9.340;2023-12-04T03:13:46;25.63;;;12.48;;
485;SDS011;229;48.734;9.340;2023-12-04T03:16:17;42.78;;;16.80;;
485;SDS011;229;48.734;9.340;2023-12-04T03:18:45;41.88;;;19.08;;
485;SDS011;229;48.734;9.340;2023-12-04T03:21:12;49.17;;;20.77;;
485;SDS011;229;48.734;9.340;2023-12-04T03:23:40;44.88;;;19.58;;
485;SDS011;229;48.734;9.340;2023-12-04T03:26:07;41.80;;;19.40;;
485;SDS011;229;48.734;9.340;2023-12-04T03:28:34;48.60;;;20.80;;
485;SDS011;229;48.734;9.340;2023-12-04T03:31:01;45.53;;;19.52;;
485;SDS011;229;48.734;9.340;2023-12-04T03:33:30;44.67;;;18.17;;
485;SDS011;229;48.734;9.340;2023-12-04T03:35:58;33.15;;;15.93;;
485;SDS011;229;48.734;9.340;2023-12-04T03:38:25;43.25;;;18.80;;
485;SDS011;229;48.734;9.340;2023-12-04T03:40:53;35.28;;;15.65;;
485;SDS011;229;48.734;9.340;2023-12-04T03:43:20;31.00;;;14.25;;
485;SDS011;229;48.734;9.340;2023-12-04T03:45:47;30.58;;;13.57;;
485;SDS011;229;48.734;9.340;2023-12-04T03:48:14;30.45;;;13.30;;
485;SDS011;229;48.734;9.340;2023-12-04T03:50:43;31.63;;;15.27;;
485;SDS011;229;48.734;9.340;2023-12-04T03:53:10;37.70;;;19.02;;
485;SDS011;229;48.734;9.340;2023-12-04T03:55:37;40.33;;;19.77;;
485;SDS011;229;48.734;9.340;2023-12-04T03:58:04;46.92;;;19.10;;
485;SDS011;229;48.734;9.340;2023-12-04T04:00:31;30.90;;;13.50;;
485;SDS011;229;48.734;9.340;2023-12-04T04:02:58;32.38;;;14.50;;
485;SDS011;229;48.734;9.340;2023-12-04T04:05:25;34.85;;;15.63;;
485;SDS011;229;48.734;9.340;2023-12-04T04:07:54;29.20;;;14.60;;
485;SDS011;229;48.734;9.340;2023-12-04T04:10:21;33.63;;;15.57;;
485;SDS011;229;48.734;9.340;2023-12-04T04:12:49;35.53;;;15.43;;
485;SDS011;229;48.734;9.340;2023-12-04T04:15:16;33.97;;;15.75;;
485;SDS011;229;48.734;9.340;2023-12-04T04:17:43;40.03;;;17.30;;
485;SDS011;229;48.734;9.340;2023-12-04T04:20:11;28.23;;;13.82;;
485;SDS011;229;48.734;9.340;2023-12-04T04:22:39;37.40;;;15.48;;
485;SDS011;229;48.734;9.340;2023-12-04T04:25:08;36.58;;;16.92;;
485;SDS011;229;48.734;9.340;2023-12-04T04:27:35;31.17;;;15.18;;
485;SDS011;229;48.734;9.340;2023-12-04T04:30:03;29.88;;;14.32;;
485;SDS011;229;48.734;9.340;2023-12-04T04:32:30;30.25;;;14.77;;
485;SDS011;229;48.734;9.340;2023-12-04T04:34:57;30.38;;;13.60;;
485;SDS011;229;48.734;9.340;2023-12-04T04:37:24;33.72;;;16.63;;
485;SDS011;229;48.734;9.340;2023-12-04T04:39:52;35.00;;;15.07;;
485;SDS011;229;48.734;9.340;2023-12-04T04:42:22;26.05;;;13.32;;
485;SDS011;229;48.734;9.340;2023-12-04T04:44:49;37.33;;;16.05;;
485;SDS011;229;48.734;9.340;2023-12-04T04:47:16;31.67;;;15.20;;
485;SDS011;229;48.734;9.340;2023-12-04T04:49:43;29.70;;;15.00;;
485;SDS011;229;48.734;9.340;2023-12-04T04:52:11;28.48;;;14.18;;
485;SDS011;229;48.734;9.340;2023-12-04T04:54:38;35.03;;;16.33;;
485;SDS011;229;48.734;9.340;2023-12-04T04:57:05;33.60;;;15.50;;
485;SDS011;229;48.734;9.340;2023-12-04T04:59:34;33.80;;;14.75;;
485;SDS011;229;48.734;9.340;2023-12-04T05:02:01;33.83;;;15.52;;
485;SDS011;229;48.734;9.340;2023-12-04T05:04:29;32.72;;;15.43;;
485;SDS011;229;48.734;9.340;2023-12-04T05:06:56;30.77;;;15.52;;
485;SDS011;229;48.734;9.340;2023-12-04T05:09:23;29.67;;;13.45;;
485;SDS011;229;48.734;9.340;2023-12-04T05:11:50;36.03;;;15.27;;
485;SDS011;229;48.734;9.340;2023-12-04T05:14:17;36.65;;;16.88;;
485;SDS011;229;48.734;9.340;2023-12-04T05:16:46;36.58;;;15.32;;
485;SDS011;229;48.734;9.340;2023-12-04T05:19:13;32.15;;;14.40;;
485;SDS011;229;48.734;9.340;2023-12-04T05:21:40;34.35;;;14.27;;
485;SDS011;229;48.734;9.340;2023-12-04T05:24:07;30.50;;;15.00;;
485;SDS011;229;48.734;9.340;2023-12-04T05:26:34;31.50;;;16.08;;
485;SDS011;229;48.734;9.340;2023-12-04T05:29:01;36.40;;;17.25;;
485;SDS011;229;48.734;9.340;2023-12-04T05:31:29;37.72;;;16.05;;
485;SDS011;229;48.734;9.340;2023-12-04T05:33:57;35.95;;;15.52;;
485;SDS011;229;48.734;9.340;2023-12-04T05:36:24;31.73;;;15.88;;
485;SDS011;229;48.734;9.340;2023-12-04T05:38:51;35.97;;;16.08;;
485;SDS011;229;48.734;9.340;2023-12-04T05:41:19;33.67;;;16.60;;
485;SDS011;229;48.734;9.340;2023-12-04T05:43:46;31.25;;;15.18;;
485;SDS011;229;48.734;9.340;2023-12-04T05:46:13;29.73;;;14.57;;
485;SDS011;229;48.734;9.340;2023-12-04T05:48:41;36.17;;;16.75;;
485;SDS011;229;48.734;9.340;2023-12-04T05:51:09;35.03;;;15.85;;
485;SDS011;229;48.734;9.340;2023-12-04T05:53:37;37.38;;;16.45;;
485;SDS011;229;48.734;9.340;2023-12-04T05:56:05;34.35;;;15.85;;
485;SDS011;229;48.734;9.340;2023-12-04T05:58:33;37.25;;;15.48;;
485;SDS011;229;48.734;9.340;2023-12-04T06:01:01;36.03;;;16.00;;
485;SDS011;229;48.734;9.340;2023-12-04T06:03:28;29.67;;;14.23;;
485;SDS011;229;48.734;9.340;2023-12-04T06:05:55;35.13;;;15.82;;
485;SDS011;229;48.734;9.340;2023-12-04T06:08:24;32.00;;;16.83;;
485;SDS011;229;48.734;9.340;2023-12-04T06:10:51;35.35;;;14.75;;
485;SDS011;229;48.734;9.340;2023-12-04T06:13:18;30.17;;;15.27;;
485;SDS011;229;48.734;9.340;2023-12-04T06:15:45;32.83;;;15.40;;
485;SDS011;229;48.734;9.340;2023-12-04T06:18:13;29.20;;;13.60;;
485;SDS011;229;48.734;9.340;2023-12-04T06:20:40;32.78;;;15.85;;
485;SDS011;229;48.734;9.340;2023-12-04T06:23:07;37.38;;;15.82;;
485;SDS011;229;48.734;9.340;2023-12-04T06:25:36;37.15;;;16.52;;
485;SDS011;229;48.734;9.340;2023-12-04T06:28:03;33.33;;;15.20;;
485;SDS011;229;48.734;9.340;2023-12-04T06:30:31;33.97;;;15.70;;
485;SDS011;229;48.734;9.340;2023-12-04T06:32:58;29.42;;;14.50;;
485;SDS011;229;48.734;9.340;2023-12-04T06:35:26;34.13;;;16.90;;
485;SDS011;229;48.734;9.340;2023-12-04T06:37:53;31.58;;;15.07;;
485;SDS011;229;48.734;9.340;2023-12-04T06:40:21;41.53;;;16.50;;
485;SDS011;229;48.734;9.340;2023-12-04T06:42:50;35.10;;;17.00;;
485;SDS011;229;48.734;9.340;2023-12-04T06:45:18;42.10;;;17.33;;
485;SDS011;229;48.734;9.340;2023-12-04T06:47:45;34.00;;;17.20;;
485;SDS011;229;48.734;9.340;2023-12-04T06:50:13;38.30;;;18.80;;
485;SDS011;229;48.734;9.340;2023-12-04T06:52:40;37.00;;;16.90;;
485;SDS011;229;48.734;9.340;2023-12-04T06:55:07;33.28;;;15.10;;
485;SDS011;229;48.734;9.340;2023-12-04T06:57:34;31.20;;;15.30;;
485;SDS011;229;48.734;9.340;2023-12-04T07:00:03;34.50;;;15.80;;
485;SDS011;229;48.734;9.340;2023-12-04T07:02:32;32.78;;;14.75;;
485;SDS011;229;48.734;9.340;2023-12-04T07:04:59;28.90;;;14.85;;
485;SDS011;229;48.734;9.340;2023-12-04T07:07:28;32.97;;;15.27;;
485;SDS011;229;48.734;9.340;2023-12-04T07:09:55;32.63;;;15.15;;
485;SDS011;229;48.734;9.340;2023-12-04T07:12:22;28.60;;;14.63;;
485;SDS011;229;48.734;9.340;2023-12-04T07:14:49;37.83;;;15.85;;
485;SDS011;229;48.734;9.340;2023-12-04T07:17:18;33.30;;;16.70;;
485;SDS011;229;48.734;9.340;2023-12-04T07:19:46;29.60;;;14.48;;
485;SDS011;229;48.734;9.340;2023-12-04T07:22:13;31.30;;;14.60;;
485;SDS011;229;48.734;9.340;2023-12-04T07:24:40;33.70;;;16.02;;
485;SDS011;229;48.734;9.340;2023-12-04T07:27:08;33.33;;;16.70;;
485;SDS011;229;48.734;9.340;2023-12-04T07:29:35;32.55;;;14.57;;
485;SDS011;229;48.734;9.340;2023-12-04T07:32:04;39.33;;;16.77;;
485;SDS011;229;48.734;9.340;2023-12-04T07:34:32;36.28;;;16.10;;
485;SDS011;229;48.734;9.340;2023-12-04T07:36:59;36.00;;;16.85;;
485;SDS011;229;48.734;9.340;2023-12-04T07:39:27;37.53;;;16.70;;
485;SDS011;229;48.734;9.340;2023-12-04T07:41:54;33.40;;;16.67;;
485;SDS011;229;48.734;9.340;2023-12-04T07:44:22;44.40;;;20.50;;
485;SDS011;229;48.734;9.340;2023-12-04T07:46:49;31.90;;;15.95;;
485;SDS011;229;48.734;9.340;2023-12-04T07:49:16;32.55;;;15.50;;
485;SDS011;229;48.734;9.340;2023-12-04T07:51:44;31.27;;;15.07;;
485;SDS011;229;48.734;9.340;2023-12-04T07:54:12;48.80;;;19.85;;
485;SDS011;229;48.734;9.340;2023-12-04T07:56:39;41.50;;;19.05;;
485;SDS011;229;48.734;9.340;2023-12-04T07:59:07;32.08;;;15.93;;
485;SDS011;229;48.734;9.340;2023-12-04T08:01:34;37.72;;;18.08;;
485;SDS011;229;48.734;9.340;2023-12-04T08:04:01;36.05;;;16.17;;
485;SDS011;229;48.734;9.340;2023-12-04T08:06:29;33.90;;;15.93;;
485;SDS011;229;48.734;9.340;2023-12-04T08:08:57;29.98;;;14.45;;
485;SDS011;229;48.734;9.340;2023-12-04T08:11:24;36.20;;;16.85;;
485;SDS011;229;48.734;9.340;2023-12-04T08:13:51;35.90;;;15.75;;
485;SDS011;229;48.734;9.340;2023-12-04T08:16:19;32.97;;;15.52;;
485;SDS011;229;48.734;9.340;2023-12-04T08:18:46;31.02;;;15.32;;
485;SDS011;229;48.734;9.340;2023-12-04T08:21:13;27.95;;;13.88;;
485;SDS011;229;48.734;9.340;2023-12-04T08:23:40;34.70;;;15.38;;
485;SDS011;229;48.734;9.340;2023-12-04T08:26:09;36.45;;;14.45;;
485;SDS011;229;48.734;9.340;2023-12-04T08:28:36;31.77;;;15.05;;
485;SDS011;229;48.734;9.340;2023-12-04T08:31:06;31.63;;;15.57;;
485;SDS011;229;48.734;9.340;2023-12-04T08:33:35;28.77;;;14.40;;
485;SDS011;229;48.734;9.340;2023-12-04T08:36:02;31.90;;;15.18;;
485;SDS011;229;48.734;9.340;2023-12-04T08:38:30;31.67;;;14.90;;
485;SDS011;229;48.734;9.340;2023-12-04T08:40:57;33.72;;;15.10;;
485;SDS011;229;48.734;9.340;2023-12-04T08:43:25;37.38;;;15.80;;
485;SDS011;229;48.734;9.340;2023-12-04T08:45:53;32.35;;;14.60;;
485;SDS011;229;48.734;9.340;2023-12-04T08:48:21;34.72;;;14.75;;
485;SDS011;229;48.734;9.340;2023-12-04T08:50:48;31.00;;;14.70;;
485;SDS011;229;48.734;9.340;2023-12-04T08:53:15;29.48;;;15.30;;
485;SDS011;229;48.734;9.340;2023-12-04T08:55:42;30.25;;;14.88;;
485;SDS011;229;48.734;9.340;2023-12-04T08:58:10;34.67;;;15.07;;
485;SDS011;229;48.734;9.340;2023-12-04T09:00:38;33.70;;;14.45;;
485;SDS011;229;48.734;9.340;2023-12-04T09:03:08;36.47;;;18.77;;
485;SDS011;229;48.734;9.340;2023-12-04T09:05:35;29.40;;;15.32;;
485;SDS011;229;48.734;9.340;2023-12-04T09:08:02;30.20;;;15.23;;
485;SDS011;229;48.734;9.340;2023-12-04T09:10:30;26.52;;;14.73;;
485;SDS011;229;48.734;9.340;2023-12-04T09:12:57;33.97;;;15.32;;
485;SDS011;229;48.734;9.340;2023-12-04T09:15:24;33.17;;;16.75;;
485;SDS011;229;48.734;9.340;2023-12-04T09:17:52;34.08;;;17.10;;
485;SDS011;229;48.734;9.340;2023-12-04T09:20:19;34.92;;;17.25;;
485;SDS011;229;48.734;9.340;2023-12-04T09:22:47;35.67;;;16.83;;
485;SDS011;229;48.734;9.340;2023-12-04T09:25:14;35.22;;;16.77;;
485;SDS011;229;48.734;9.340;2023-12-04T09:27:41;34.53;;;16.20;;
485;SDS011;229;48.734;9.340;2023-12-04T09:30:09;31.80;;;16.77;;
485;SDS011;229;48.734;9.340;2023-12-04T09:32:36;38.28;;;17.50;;
485;SDS011;229;48.734;9.340;2023-12-04T09:35:05;29.40;;;15.43;;
485;SDS011;229;48.734;9.340;2023-12-04T09:37:32;35.63;;;16.90;;
485;SDS011;229;48.734;9.340;2023-12-04T09:39:59;37.63;;;17.80;;
485;SDS011;229;48.734;9.340;2023-12-04T09:42:27;35.65;;;18.80;;
485;SDS011;229;48.734;9.340;2023-12-04T09:44:54;34.85;;;21.73;;
485;SDS011;229;48.734;9.340;2023-12-04T09:47:21;31.48;;;21.40;;
485;SDS011;229;48.734;9.340;2023-12-04T09:49:49;32.10;;;17.55;;
485;SDS011;229;48.734;9.340;2023-12-04T09:52:19;34.92;;;15.00;;
485;SDS011;229;48.734;9.340;2023-12-04T09:54:46;26.35;;;15.88;;
485;SDS011;229;48.734;9.340;2023-12-04T09:57:13;32.70;;;21.38;;
485;SDS011;229;48.734;9.340;2023-12-04T09:59:41;34.38;;;20.50;;
485;SDS011;229;48.734;9.340;2023-12-04T10:02:10;35.90;;;21.10;;
485;SDS011;229;48.734;9.340;2023-12-04T10:04:38;29.80;;;15.52;;
485;SDS011;229;48.734;9.340;2023-12-04T10:07:06;30.38;;;14.18;;
485;SDS011;229;48.734;9.340;2023-12-04T10:09:34;30.15;;;19.58;;
485;SDS011;229;48.734;9.340;2023-12-04T10:12:01;31.85;;;20.30;;
485;SDS011;229;48.734;9.340;2023-12-04T10:14:29;33.20;;;19.08;;
485;SDS011;229;48.734;9.340;2023-12-04T10:16:56;28.05;;;19.42;;
485;SDS011;229;48.734;9.340;2023-12-04T10:19:25;30.40;;;20.23;;
485;SDS011;229;48.734;9.340;2023-12-04T10:21:53;29.10;;;18.65;;
485;SDS011;229;48.734;9.340;2023-12-04T10:24:28;27.13;;;17.55;;
485;SDS011;229;48.734;9.340;2023-12-04T10:26:57;29.80;;;17.95;;
485;SDS011;229;48.734;9.340;2023-12-04T10:29:26;25.63;;;16.70;;
485;SDS011;229;48.734;9.340;2023-12-04T10:31:54;27.27;;;17.40;;
485;SDS011;229;48.734;9.340;2023-12-04T10:34:21;27.10;;;17.85;;
485;SDS011;229;48.734;9.340;2023-12-04T10:36:51;24.55;;;17.13;;
485;SDS011;229;48.734;9.340;2023-12-04T10:39:18;24.80;;;16.60;;
485;SDS011;229;48.734;9.340;2023-12-04T10:41:45;27.23;;;17.58;;
485;SDS011;229;48.734;9.340;2023-12-04T10:44:26;27.48;;;14.07;;
485;SDS011;229;48.734;9.340;2023-12-04T10:46:55;23.98;;;15.55;;
485;SDS011;229;48.734;9.340;2023-12-04T10:49:25;23.50;;;15.40;;
485;SDS011;229;48.734;9.340;2023-12-04T10:51:53;23.55;;;16.00;;
485;SDS011;229;48.734;9.340;2023-12-04T10:54:23;22.55;;;15.85;;
485;SDS011;229;48.734;9.340;2023-12-04T10:56:51;25.80;;;15.90;;
485;SDS011;229;48.734;9.340;2023-12-04T10:59:21;25.25;;;16.33;;
485;SDS011;229;48.734;9.340;2023-12-04T11:01:50;22.55;;;15.40;;
485;SDS011;229;48.734;9.340;2023-12-04T11:04:19;27.05;;;15.32;;
485;SDS011;229;48.734;9.340;2023-12-04T11:06:49;24.35;;;15.65;;
485;SDS011;229;48.734;9.340;2023-12-04T11:09:19;24.13;;;15.02;;
485;SDS011;229;48.734;9.340;2023-12-04T11:11:51;26.35;;;16.60;;
485;SDS011;229;48.734;9.340;2023-12-04T11:14:21;26.15;;;15.75;;
485;SDS011;229;48.734;9.340;2023-12-04T11:16:51;26.83;;;17.23;;
485;SDS011;229;48.734;9.340;2023-12-04T11:19:20;25.25;;;15.75;;
485;SDS011;229;48.734;9.340;2023-12-04T11:21:50;25.52;;;16.38;;
485;SDS011;229;48.734;9.340;2023-12-04T11:24:18;20.92;;;15.55;;
485;SDS011;229;48.734;9.340;2023-12-04T11:26:46;23.33;;;15.63;;
485;SDS011;229;48.734;9.340;2023-12-04T11:29:14;22.13;;;15.43;;
485;SDS011;229;48.734;9.340;2023-12-04T11:31:42;28.00;;;17.23;;
485;SDS011;229;48.734;9.340;2023-12-04T11:34:12;27.13;;;17.45;;
485;SDS011;229;48.734;9.340;2023-12-04T11:36:39;24.20;;;15.88;;
485;SDS011;229;48.734;9.340;2023-12-04T11:39:08;28.95;;;18.13;;
485;SDS011;229;48.734;9.340;2023-12-04T11:41:36;27.25;;;16.58;;
485;SDS011;229;48.734;9.340;2023-12-04T11:44:03;25.77;;;17.20;;
485;SDS011;229;48.734;9.340;2023-12-04T11:46:38;27.52;;;17.08;;
485;SDS011;229;48.734;9.340;2023-12-04T11:51:54;26.15;;;16.48;;
485;SDS011;229;48.734;9.340;2023-12-04T11:54:22;27.27;;;16.13;;
485;SDS011;229;48.734;9.340;2023-12-04T11:56:57;26.02;;;17.00;;
485;SDS011;229;48.734;9.340;2023-12-04T11:59:25;28.55;;;18.45;;
485;SDS011;229;48.734;9.340;2023-12-04T12:01:53;26.00;;;16.77;;
485;SDS011;229;48.734;9.340;2023-12-04T12:04:21;24.40;;;16.58;;
485;SDS011;229;48.734;9.340;2023-12-04T12:06:49;24.60;;;17.02;;
485;SDS011;229;48.734;9.340;2023-12-04T12:09:18;24.15;;;17.05;;
485;SDS011;229;48.734;9.340;2023-12-04T12:11:45;24.65;;;17.05;;
485;SDS011;229;48.734;9.340;2023-12-04T12:14:13;25.00;;;16.65;;
485;SDS011;229;48.734;9.340;2023-12-04T12:16:40;26.70;;;17.70;;
485;SDS011;229;48.734;9.340;2023-12-04T12:19:07;24.00;;;16.00;;
485;SDS011;229;48.734;9.340;2023-12-04T12:21:34;27.60;;;18.38;;
485;SDS011;229;48.734;9.340;2023-12-04T12:24:05;33.28;;;18.17;;
485;SDS011;229;48.734;9.340;2023-12-04T12:26:34;30.25;;;18.55;;
485;SDS011;229;48.734;9.340;2023-12-04T12:29:01;28.50;;;19.50;;
485;SDS011;229;48.734;9.340;2023-12-04T12:31:29;27.38;;;17.27;;
485;SDS011;229;48.734;9.340;2023-12-04T12:33:56;31.80;;;18.88;;
485;SDS011;229;48.734;9.340;2023-12-04T12:36:23;26.75;;;17.67;;
485;SDS011;229;48.734;9.340;2023-12-04T12:38:50;35.58;;;20.63;;
485;SDS011;229;48.734;9.340;2023-12-04T12:41:18;25.55;;;17.65;;
485;SDS011;229;48.734;9.340;2023-12-04T12:43:46;28.25;;;18.50;;
485;SDS011;229;48.734;9.340;2023-12-04T12:46:14;24.95;;;17.08;;
485;SDS011;229;48.734;9.340;2023-12-04T12:48:42;24.98;;;17.23;;
485;SDS011;229;48.734;9.340;2023-12-04T12:51:09;27.88;;;18.00;;
485;SDS011;229;48.734;9.340;2023-12-04T12:53:37;32.50;;;18.83;;
485;SDS011;229;48.734;9.340;2023-12-04T12:56:04;34.65;;;19.65;;
485;SDS011;229;48.734;9.340;2023-12-04T12:58:33;30.08;;;19.20;;
485;SDS011;229;48.734;9.340;2023-12-04T13:01:01;33.95;;;19.05;;
485;SDS011;229;48.734;9.340;2023-12-04T13:03:30;35.97;;;24.67;;
485;SDS011;229;48.734;9.340;2023-12-04T13:05:57;37.05;;;21.48;;
485;SDS011;229;48.734;9.340;2023-12-04T13:08:24;34.47;;;21.08;;
485;SDS011;229;48.734;9.340;2023-12-04T13:10:52;35.22;;;21.23;;
485;SDS011;229;48.734;9.340;2023-12-04T13:13:20;35.97;;;21.83;;
485;SDS011;229;48.734;9.340;2023-12-04T13:15:47;37.38;;;23.17;;
485;SDS011;229;48.734;9.340;2023-12-04T13:18:16;37.53;;;22.52;;
485;SDS011;229;48.734;9.340;2023-12-04T13:20:43;33.88;;;20.45;;
485;SDS011;229;48.734;9.340;2023-12-04T13:23:10;36.35;;;22.05;;
485;SDS011;229;48.734;9.340;2023-12-04T13:25:37;39.78;;;24.27;;
485;SDS011;229;48.734;9.340;2023-12-04T13:28:04;39.15;;;22.52;;
485;SDS011;229;48.734;9.340;2023-12-04T13:30:32;39.33;;;23.50;;
485;SDS011;229;48.734;9.340;2023-12-04T13:32:59;44.28;;;24.90;;
485;SDS011;229;48.734;9.340;2023-12-04T13:35:29;45.33;;;24.80;;
485;SDS011;229;48.734;9.340;2023-12-04T13:37:56;38.92;;;24.48;;
485;SDS011;229;48.734;9.340;2023-12-04T13:40:24;42.42;;;24.83;;
485;SDS011;229;48.734;9.340;2023-12-04T13:42:53;42.40;;;23.83;;
485;SDS011;229;48.734;9.340;2023-12-04T13:45:38;44.30;;;25.55;;
485;SDS011;229;48.734;9.340;2023-12-04T13:48:05;42.15;;;23.77;;
485;SDS011;229;48.734;9.340;2023-12-04T13:50:34;38.17;;;22.20;;
485;SDS011;229;48.734;9.340;2023-12-04T13:53:01;36.55;;;23.48;;
485;SDS011;229;48.734;9.340;2023-12-04T13:55:29;39.15;;;22.92;;
485;SDS011;229;48.734;9.340;2023-12-04T13:58:21;36.03;;;22.35;;
485;SDS011;229;48.734;9.340;2023-12-04T14:01:08;39.08;;;22.55;;
485;SDS011;229;48.734;9.340;2023-12-04T14:03:39;37.33;;;22.85;;
485;SDS011;229;48.734;9.340;2023-12-04T14:06:08;41.45;;;24.50;;
485;SDS011;229;48.734;9.340;2023-12-04T14:08:35;37.42;;;23.23;;
485;SDS011;229;48.734;9.340;2023-12-04T14:11:03;37.80;;;23.38;;
485;SDS011;229;48.734;9.340;2023-12-04T14:13:31;40.58;;;23.23;;
485;SDS011;229;48.734;9.340;2023-12-04T14:15:59;37.35;;;22.73;;
485;SDS011;229;48.734;9.340;2023-12-04T14:18:26;38.33;;;22.35;;
485;SDS011;229;48.734;9.340;2023-12-04T14:20:55;42.10;;;25.80;;
485;SDS011;229;48.734;9.340;2023-12-04T14:23:24;38.50;;;22.98;;
485;SDS011;229;48.734;9.340;2023-12-04T14:25:52;38.63;;;22.13;;
485;SDS011;229;48.734;9.340;2023-12-04T14:28:19;39.15;;;23.42;;
485;SDS011;229;48.734;9.340;2023-12-04T14:30:47;38.30;;;23.20;;
485;SDS011;229;48.734;9.340;2023-12-04T14:33:14;40.00;;;23.38;;
485;SDS011;229;48.734;9.340;2023-12-04T14:35:41;38.22;;;21.33;;
485;SDS011;229;48.734;9.340;2023-12-04T14:38:09;40.75;;;24.15;;
485;SDS011;229;48.734;9.340;2023-12-04T14:40:37;37.80;;;22.77;;
485;SDS011;229;48.734;9.340;2023-12-04T14:43:05;33.70;;;22.15;;
485;SDS011;229;48.734;9.340;2023-12-04T14:45:34;38.53;;;22.83;;
485;SDS011;229;48.734;9.340;2023-12-04T14:48:02;39.85;;;23.77;;
485;SDS011;229;48.734;9.340;2023-12-04T14:50:32;43.42;;;24.20;;
485;SDS011;229;48.734;9.340;2023-12-04T14:53:00;45.10;;;24.67;;
485;SDS011;229;48.734;9.340;2023-12-04T14:55:41;37.47;;;23.20;;
485;SDS011;229;48.734;9.340;2023-12-04T14:58:26;43.70;;;24.40;;
485;SDS011;229;48.734;9.340;2023-12-04T15:01:38;37.20;;;22.77;;
485;SDS011;229;48.734;9.340;2023-12-04T15:04:23;35.92;;;23.42;;
485;SDS011;229;48.734;9.340;2023-12-04T15:07:08;41.85;;;24.50;;
485;SDS011;229;48.734;9.340;2023-12-04T15:09:53;41.03;;;24.40;;
485;SDS011;229;48.734;9.340;2023-12-04T15:12:52;38.83;;;23.33;;
485;SDS011;229;48.734;9.340;2023-12-04T15:16:01;43.60;;;24.80;;
485;SDS011;229;48.734;9.340;2023-12-04T15:18:47;40.03;;;24.30;;
485;SDS011;229;48.734;9.340;2023-12-04T15:21:49;42.63;;;25.25;;
485;SDS011;229;48.734;9.340;2023-12-04T15:24:18;38.17;;;23.17;;
485;SDS011;229;48.734;9.340;2023-12-04T15:26:44;39.42;;;24.73;;
485;SDS011;229;48.734;9.340;2023-12-04T15:29:11;41.92;;;24.60;;